ADDS METAR Data INFO
IDs: Format: Raw Decoded Include TAF

Data at: 1850 UTC 16 Dec 2017

KTPA 161753Z VRB03KT 10SM FEW040 BKN350 23/13 A3021 RMK AO2 SLP229 T02330133 10233 20156 58016
KTPA 161653Z 04004KT 10SM FEW038 BKN350 22/13 A3024 RMK AO2 SLP239 T02220128
KTPA 161553Z 04005KT 10SM FEW035 BKN350 21/12 A3025 RMK AO2 SLP244 T02060122
KTPA 161453Z VRB05KT 10SM SCT340 18/11 A3025 RMK AO2 SLP244 T01830111 51017
KTPA 161353Z 06006KT 10SM FEW055 FEW340 17/12 A3024 RMK AO2 SLP240 T01670117
KTPA 161253Z 04007KT 10SM BKN055 BKN300 16/13 A3023 RMK AO2 SLP235 T01610128
KTPA 161223Z 04005KT 10SM BKN055 16/13 A3021 RMK AO2 T01610133
KTPA 161153Z 04006KT 10SM BKN027 OVC050 16/13 A3020 RMK AO2 SLP228 70001 T01610133 10167 20150 53014
KTPA 161147Z 04007KT 10SM BKN027 OVC050 16/13 A3020 RMK AO2
KTPA 161053Z 03004KT 10SM BKN055 16/14 A3018 RMK AO2 SLP219 T01610139
KTPA 160953Z 04003KT 10SM SCT041 BKN050 16/13 A3016 RMK AO2 SLP214 T01560133
KTPA 160853Z 00000KT 10SM CLR 16/14 A3016 RMK AO2 SLP214 T01560139 58005
KTPA 160753Z 00000KT 10SM CLR 16/14 A3017 RMK AO2 SLP216 T01610139
KTPA 160653Z 00000KT 10SM CLR 17/14 A3017 RMK AO2 SLP217 T01670144
KTPA 160553Z 36004KT 10SM CLR 16/13 A3018 RMK AO2 SLP219 T01610133 10211 20161 53002
KTPA 160453Z 00000KT 10SM CLR 17/13 A3017 RMK AO2 SLP218 T01670128 402440161
KTPA 160353Z 13003KT 10SM CLR 19/13 A3017 RMK AO2 SLP217 T01890133
KTPA 160253Z 00000KT 10SM CLR 19/14 A3017 RMK AO2 SLP217 T01890139 51018
KTPA 160153Z 00000KT 10SM CLR 19/13 A3016 RMK AO2 SLP211 T01940133
KTPA 160053Z 00000KT 10SM CLR 20/13 A3014 RMK AO2 SLP206 T02000133
KTPA 152353Z 32004KT 10SM CLR 21/13 A3012 RMK AO2 SLP200 T02060133 10244 20206 53016
KTPA 152253Z 29003KT 10SM FEW055 BKN350 22/14 A3010 RMK AO2 SLP194 T02170139
KTPA 152153Z 28006KT 10SM FEW055 BKN350 23/14 A3009 RMK AO2 SLP188 T02280139
KTPA 152053Z 29007KT 10SM FEW055 BKN350 24/14 A3007 RMK AO2 SLP183 T02390139 55002
KTPA 151953Z 25005KT 10SM FEW050 BKN340 24/13 A3007 RMK AO2 SLP182 T02390133
KTPA 151853Z 28007KT 10SM SCT050 SCT070 24/13 A3007 RMK AO2 SLP183 T02390128
KTPA 151753Z 26008KT 10SM SCT040 SCT065 23/15 A3008 RMK AO2 SLP185 60001 T02280150 10233 20172 58008
KTPA 151653Z 19009KT 10SM SCT035 BKN055 23/17 A3010 RMK AO2 SLP192 T02280172
KTPA 151553Z 18011KT 10SM SCT034 SCT045 22/17 A3011 RMK AO2 SLP197 T02220167
KTPA 151453Z 16005KT 10SM SCT029 SCT250 21/17 A3010 RMK AO2 SLP193 60001 T02060167 53015
KTPA 151353Z 17005KT 10SM SCT017 BKN047 BKN070 18/16 A3009 RMK AO2 RAB25E44 SLP189 TCU DSNT NE-SW SHRA DSNT NE AND SW P0001 T01830161
KTPA 151335Z 30006KT 6SM -RA BKN019 BKN030 OVC050 18/16 A3009 RMK AO2 RAB25 BKN019 V SCT P0001 T01830156
KTPA 151329Z 30007KT 6SM -RA FEW022 SCT035 OVC050 18/16 A3009 RMK AO2 RAB25 P0001 T01830156
KTPA 151253Z 15005KT 10SM BKN055 OVC070 18/15 A3007 RMK AO2 SLP181 T01830150
KTPA 151153Z 16005KT 10SM BKN070 17/14 A3006 RMK AO2 SLP178 T01720144 10189 20172 53004
KTPA 151053Z 15005KT 10SM BKN070 17/14 A3005 RMK AO2 SLP176 T01720144
KTPA 150953Z 14006KT 10SM BKN065 18/15 A3004 RMK AO2 SLP172 T01780150
KTPA 150853Z 16006KT 10SM FEW034 BKN070 19/15 A3005 RMK AO2 SLP174 T01890150 55003
KTPA 150753Z 16004KT 10SM SCT070 18/14 A3004 RMK AO2 SLP172 T01830144
KTPA 150653Z 16006KT 10SM BKN070 18/14 A3004 RMK AO2 SLP173 T01830144